GMTN  Saniat Rmel Airport

Add Bookmark

Morocco

Status IATA
Operational TTU
Latitude Longitude
35° 35' 39" N 5° 19' 12" W
35.594299 -5.320020
Local (DST + 1) UTC (GMT 0)
Dec 19, 2014 11:54 Dec 19, 2014 11:54
Sunrise-Sunset Local UTC
Begin Civil Twilight 06:56 06:56
Sunrise 07:24 07:24
Sunset 05:12 17:12
End Civil Twilight 05:40 17:40

Current Weather

METAR Observed MVFR
GMTN 191100Z 19006KT 7000 FEW016 SCT230 15/11 Q1031 Fri, Dec 19, 2014 @ 11:00 UTC
(54 Minutes ago)
Marginal Visual Flight Rules
Wind Visibility Clouds Conditions
190° at 6 knots (11 kph) 7000 meters
  • Few at 1,600' AGL
  • Scattered at 23,000' AGL
  • No significant weather
Temperatures Readings Precipitation
Current Temp 15°C (59°F)
Dewpoint 11°C (52°F)
Humidity 77%
Altimeter 30.44"Hg
Sea Level Pressure 1031mb
Field Elevation 32.81'
None Recorded

Additional weather within a 92.6km radius of GMTN

Map ICAO Location
GMTT 55.9km W (285°)
LXGB 61.9km N (360°)

24 Hour Weather History

Loading
-

24 Hour Weather Graphs

Loading
-

CheckWX.com is intended as a tool to help pilots better visualize weather data. It is not intended as a substitute for an official weather briefing obtained from a Flight Service Station. CheckWX.com does not meet the FAA requirements for an official pre-flight weather briefing. Therefore, it's important that pilots still call and obtain an official FSS pre-flight weather briefing.